createdAt,value
2023-04-21T00:02:34.667Z,60.59
2023-04-21T00:05:10.570Z,60.68
2023-04-21T00:07:42.957Z,60.41
2023-04-21T00:10:15.191Z,60.33
2023-04-21T00:12:47.894Z,60.51
2023-04-21T00:15:20.350Z,60.59
2023-04-21T00:17:53.162Z,60.65
2023-04-21T00:20:26.835Z,60.59
2023-04-21T00:23:01.478Z,60.76
2023-04-21T00:25:33.836Z,60.68
2023-04-21T00:28:06.151Z,61.10
2023-04-21T00:30:38.481Z,60.91
2023-04-21T00:33:11.316Z,60.67
2023-04-21T00:35:43.557Z,60.60
2023-04-21T00:38:16.119Z,60.75
2023-04-21T00:40:48.389Z,60.73
2023-04-21T00:43:20.914Z,60.83
2023-04-21T00:45:53.822Z,60.92
2023-04-21T00:48:26.477Z,60.89
2023-04-21T00:50:58.837Z,60.97
2023-04-21T00:53:31.656Z,61.04
2023-04-21T00:56:04.312Z,61.23
2023-04-21T00:58:38.080Z,60.78
2023-04-21T01:01:10.402Z,60.98
2023-04-21T01:03:43.239Z,61.11
2023-04-21T01:06:15.944Z,61.18
2023-04-21T01:08:49.567Z,61.17
2023-04-21T01:11:21.874Z,61.32
2023-04-21T01:13:57.213Z,61.16
2023-04-21T01:16:30.045Z,61.09
2023-04-21T01:19:04.674Z,61.13
2023-04-21T01:21:43.168Z,61.23
2023-04-21T01:24:15.819Z,61.28
2023-04-21T01:26:49.760Z,61.40
2023-04-21T01:29:22.148Z,61.70
2023-04-21T01:31:54.526Z,61.69
2023-04-21T01:34:26.793Z,61.66
2023-04-21T01:36:58.967Z,61.57
2023-04-21T01:39:31.235Z,61.87
2023-04-21T01:42:03.822Z,61.73
2023-04-21T01:44:36.780Z,61.47
2023-04-21T01:47:09.651Z,61.42
2023-04-21T01:49:41.764Z,61.25
2023-04-21T01:52:14.404Z,61.35
2023-04-21T01:54:47.674Z,61.40
2023-04-21T01:57:20.298Z,61.57
2023-04-21T01:59:52.602Z,61.77
2023-04-21T02:02:25.048Z,61.78
2023-04-21T02:04:58.052Z,61.86
2023-04-21T02:07:30.210Z,61.63
2023-04-21T02:10:02.563Z,61.38
2023-04-21T02:12:34.784Z,61.39
2023-04-21T02:15:08.879Z,61.35
2023-04-21T02:17:43.012Z,61.52
2023-04-21T02:20:15.697Z,61.37
2023-04-21T02:22:47.880Z,61.67
2023-04-21T02:25:21.048Z,61.60
2023-04-21T02:27:53.005Z,61.82
2023-04-21T02:30:25.408Z,61.31
2023-04-21T02:32:57.961Z,61.37
2023-04-21T02:35:30.392Z,61.33
2023-04-21T02:38:07.283Z,61.52
2023-04-21T02:40:39.596Z,61.41
2023-04-21T02:43:12.789Z,61.55
2023-04-21T02:45:45.184Z,61.44
2023-04-21T02:48:22.979Z,61.45
2023-04-21T02:50:56.449Z,61.62
2023-04-21T02:53:29.155Z,61.60
2023-04-21T02:56:03.600Z,61.67
2023-04-21T02:58:35.856Z,61.97
2023-04-21T03:01:09.088Z,61.96
2023-04-21T03:03:41.619Z,61.98
2023-04-21T03:06:16.562Z,62.06
2023-04-21T03:08:48.522Z,62.29
2023-04-21T03:11:20.803Z,62.48
2023-04-21T03:13:52.788Z,62.62
2023-04-21T03:16:25.511Z,62.79
2023-04-21T03:18:57.851Z,62.78
2023-04-21T03:21:30.194Z,62.96
2023-04-21T03:24:02.634Z,62.65
2023-04-21T03:26:35.013Z,62.70
2023-04-21T03:29:07.261Z,62.62
2023-04-21T03:31:39.623Z,62.75
2023-04-21T03:34:12.098Z,62.82
2023-04-21T03:36:44.852Z,63.06
2023-04-21T03:39:20.131Z,62.87
2023-04-21T03:41:53.160Z,62.97
2023-04-21T03:44:28.783Z,63.02
2023-04-21T03:47:03.576Z,62.82
2023-04-21T03:49:38.016Z,62.71
2023-04-21T03:52:10.684Z,62.53
2023-04-21T03:54:42.773Z,62.58
2023-04-21T03:57:16.528Z,62.84
2023-04-21T03:59:48.749Z,63.14
2023-04-21T04:02:21.130Z,62.97
2023-04-21T04:04:53.754Z,62.90
2023-04-21T04:07:26.345Z,62.82
2023-04-21T04:09:58.521Z,62.65
2023-04-21T04:12:30.951Z,62.46
2023-04-21T04:15:03.163Z,62.79
2023-04-21T04:17:35.899Z,62.70
2023-04-21T04:20:09.752Z,62.72
2023-04-21T04:22:42.285Z,62.92
2023-04-21T04:25:18.053Z,62.91
2023-04-21T04:27:50.668Z,63.03
2023-04-21T04:30:24.012Z,63.08
2023-04-21T04:32:58.344Z,63.15
2023-04-21T04:35:31.054Z,62.89
2023-04-21T04:38:04.512Z,62.93
2023-04-21T04:40:36.880Z,62.88
2023-04-21T04:43:12.278Z,62.81
2023-04-21T04:45:45.532Z,62.76
2023-04-21T04:48:18.311Z,62.69
2023-04-21T04:50:50.917Z,62.97
2023-04-21T04:53:23.320Z,63.19
2023-04-21T04:55:57.932Z,62.88
2023-04-21T04:58:30.706Z,62.79
2023-04-21T05:01:14.083Z,62.87
2023-04-21T05:03:47.204Z,62.54
2023-04-21T05:06:19.731Z,62.64
2023-04-21T05:08:53.366Z,62.20
2023-04-21T05:11:25.702Z,62.16
2023-04-21T05:13:58.361Z,62.48
2023-04-21T05:16:31.145Z,62.29
2023-04-21T05:19:05.532Z,62.19
2023-04-21T05:21:38.721Z,62.26
2023-04-21T05:24:12.053Z,61.93
2023-04-21T05:26:44.223Z,61.93
2023-04-21T05:29:16.666Z,61.87
2023-04-21T05:31:49.110Z,62.36
2023-04-21T05:34:21.489Z,61.94
2023-04-21T05:36:54.365Z,61.66
2023-04-21T05:39:28.800Z,61.28
2023-04-21T05:42:02.514Z,60.64
2023-04-21T05:44:35.020Z,60.10
2023-04-21T05:47:08.625Z,59.58
2023-04-21T05:49:41.769Z,59.06
2023-04-21T05:52:14.662Z,59.13
2023-04-21T05:54:47.973Z,58.60
2023-04-21T05:57:20.655Z,58.37
2023-04-21T05:59:53.304Z,58.55
2023-04-21T06:02:25.765Z,58.40
2023-04-21T06:04:58.755Z,58.27
2023-04-21T06:07:31.044Z,58.37
2023-04-21T06:10:03.254Z,58.37
2023-04-21T06:12:35.529Z,58.33
2023-04-21T06:15:09.430Z,58.47
2023-04-21T06:17:41.528Z,58.81
2023-04-21T06:20:15.203Z,58.67
2023-04-21T06:22:47.826Z,59.20
2023-04-21T06:25:20.606Z,58.33
2023-04-21T06:27:52.898Z,58.46
2023-04-21T06:30:25.295Z,57.72
2023-04-21T06:32:57.702Z,58.42
2023-04-21T06:35:30.791Z,57.64
2023-04-21T06:38:03.114Z,57.34
2023-04-21T06:40:35.323Z,57.53
2023-04-21T06:43:07.808Z,57.40
2023-04-21T06:45:40.278Z,57.29
2023-04-21T06:48:12.476Z,57.33
2023-04-21T06:50:46.509Z,56.57
2023-04-21T06:53:19.291Z,56.13
2023-04-21T06:55:53.056Z,56.63
2023-04-21T06:58:25.188Z,56.94
2023-04-21T07:00:57.647Z,55.74
2023-04-21T07:03:30.379Z,56.38
2023-04-21T07:06:02.962Z,57.20
2023-04-21T07:08:35.468Z,56.32
2023-04-21T07:11:08.030Z,55.83
2023-04-21T07:13:40.289Z,55.49
2023-04-21T07:16:12.674Z,55.35
2023-04-21T07:18:44.937Z,55.52
2023-04-21T07:21:17.368Z,55.97
2023-04-21T07:23:49.890Z,55.76
2023-04-21T07:26:22.119Z,55.00
2023-04-21T07:28:55.475Z,55.38
2023-04-21T07:31:27.827Z,55.12
2023-04-21T07:34:00.211Z,54.89
2023-04-21T07:36:32.420Z,54.72
2023-04-21T07:39:05.703Z,54.58
2023-04-21T07:41:38.091Z,54.69
2023-04-21T07:44:10.417Z,54.83
2023-04-21T07:46:42.922Z,54.41
2023-04-21T07:49:15.280Z,55.13
2023-04-21T07:51:47.942Z,55.28
2023-04-21T07:54:20.739Z,55.04
2023-04-21T07:56:53.409Z,53.75
2023-04-21T07:59:25.786Z,54.11
2023-04-21T08:01:58.296Z,53.78
2023-04-21T08:04:30.703Z,54.41
2023-04-21T08:07:03.878Z,53.11
2023-04-21T08:09:36.458Z,53.14
2023-04-21T08:12:08.969Z,52.72
2023-04-21T08:14:41.461Z,52.78
2023-04-21T08:17:13.817Z,51.69
2023-04-21T08:19:45.997Z,51.75
2023-04-21T08:22:18.819Z,50.75
2023-04-21T08:24:51.298Z,51.86
2023-04-21T08:27:23.794Z,52.11
2023-04-21T08:29:56.075Z,51.30
2023-04-21T08:32:28.745Z,50.97
2023-04-21T08:35:00.980Z,51.91
2023-04-21T08:37:33.466Z,51.52
2023-04-21T08:40:06.664Z,51.00
2023-04-21T08:42:39.506Z,50.50
2023-04-21T08:45:12.953Z,51.33
2023-04-21T08:47:45.996Z,50.65
2023-04-21T08:50:19.786Z,49.92
2023-04-21T08:52:52.639Z,50.97
2023-04-21T08:55:30.343Z,51.92
2023-04-21T08:58:06.459Z,52.62
2023-04-21T09:00:41.476Z,51.99
2023-04-21T09:03:24.946Z,50.92
2023-04-21T09:06:02.816Z,50.64
2023-04-21T09:08:36.154Z,49.87
2023-04-21T09:11:08.545Z,49.10
2023-04-21T09:13:40.853Z,47.66
2023-04-21T09:16:21.142Z,47.84
2023-04-21T09:18:53.940Z,47.70
2023-04-21T09:21:32.471Z,47.13
2023-04-21T09:24:07.929Z,46.76
2023-04-21T09:26:43.711Z,45.48
2023-04-21T09:29:16.392Z,45.29
2023-04-21T09:31:48.646Z,44.54
2023-04-21T09:34:24.906Z,43.39
2023-04-21T09:40:04.114Z,44.39
2023-04-21T09:42:39.604Z,44.20
2023-04-21T09:47:56.045Z,44.13
2023-04-21T09:53:15.229Z,43.93
2023-04-21T09:55:52.923Z,44.73
2023-04-21T09:58:28.863Z,44.59
2023-04-21T10:01:01.339Z,44.56
2023-04-21T10:03:34.163Z,43.69
2023-04-21T10:06:07.019Z,43.66
2023-04-21T10:08:39.750Z,42.84
2023-04-21T10:11:13.197Z,43.62
2023-04-21T10:13:45.799Z,43.40
2023-04-21T10:16:21.619Z,44.23
2023-04-21T10:18:54.649Z,43.94
2023-04-21T10:21:27.637Z,43.92
2023-04-21T10:24:00.674Z,42.89
2023-04-21T10:26:37.708Z,43.34
2023-04-21T10:29:11.008Z,43.40
2023-04-21T10:31:53.223Z,42.01
2023-04-21T10:34:36.230Z,42.30
2023-04-21T10:37:21.808Z,42.78
2023-04-21T10:39:58.211Z,42.41
2023-04-21T10:42:40.620Z,42.65
2023-04-21T10:45:15.647Z,42.28
2023-04-21T10:47:52.167Z,42.39
2023-04-21T10:50:29.693Z,43.31
2023-04-21T10:53:11.587Z,42.28
2023-04-21T10:55:49.979Z,40.77
2023-04-21T10:58:26.003Z,41.01
2023-04-21T11:00:59.357Z,42.42
2023-04-21T11:03:37.132Z,41.82
2023-04-21T11:06:18.966Z,41.48
2023-04-21T11:09:01.189Z,41.78
2023-04-21T11:11:34.912Z,41.09
2023-04-21T11:14:07.671Z,41.60
2023-04-21T11:16:44.106Z,41.33
2023-04-21T11:19:18.008Z,41.31
2023-04-21T11:21:54.169Z,40.53
2023-04-21T11:24:27.201Z,39.86
2023-04-21T11:27:01.178Z,39.76
2023-04-21T11:29:34.395Z,41.36
2023-04-21T11:32:08.933Z,40.77
2023-04-21T11:34:40.573Z,39.12
2023-04-21T11:37:23.136Z,38.80
2023-04-21T11:40:01.505Z,39.25
2023-04-21T11:42:34.206Z,38.95
2023-04-21T11:45:07.559Z,38.82
2023-04-21T11:47:40.132Z,38.11
2023-04-21T11:50:12.888Z,37.90
2023-04-21T11:52:45.544Z,38.16
2023-04-21T11:55:20.085Z,37.95
2023-04-21T11:57:53.172Z,37.66
2023-04-21T12:00:31.155Z,37.10
2023-04-21T12:03:03.899Z,37.52
2023-04-21T12:05:39.158Z,36.77
2023-04-21T12:08:18.113Z,35.82
2023-04-21T12:10:52.713Z,35.90
2023-04-21T12:13:28.493Z,36.89
2023-04-21T12:16:03.518Z,36.23
2023-04-21T12:18:37.043Z,37.64
2023-04-21T12:21:09.366Z,36.53
2023-04-21T12:23:41.676Z,37.15
2023-04-21T12:26:14.072Z,36.95
2023-04-21T12:28:47.300Z,37.40
2023-04-21T12:31:19.595Z,35.06
2023-04-21T12:33:52.098Z,34.80
2023-04-21T12:36:24.444Z,34.79
2023-04-21T12:38:56.697Z,37.32
2023-04-21T12:41:28.929Z,38.75
2023-04-21T12:44:01.225Z,38.64
2023-04-21T12:46:34.061Z,36.76
2023-04-21T12:49:07.764Z,36.40
2023-04-21T12:51:40.185Z,36.08
2023-04-21T12:54:13.122Z,35.93
2023-04-21T12:56:46.255Z,36.53
2023-04-21T12:59:18.841Z,35.20
2023-04-21T13:01:51.641Z,34.18
2023-04-21T13:04:25.232Z,34.00
2023-04-21T13:06:58.179Z,33.38
2023-04-21T13:09:31.294Z,32.54
2023-04-21T13:12:04.084Z,33.10
2023-04-21T13:14:36.518Z,32.72
2023-04-21T13:17:09.211Z,33.55
2023-04-21T13:19:41.432Z,32.40
2023-04-21T13:22:13.710Z,33.36
2023-04-21T13:24:45.964Z,34.51
2023-04-21T13:27:18.621Z,34.52
2023-04-21T13:29:50.981Z,35.37
2023-04-21T13:32:24.588Z,34.55
2023-04-21T13:34:58.276Z,34.59
2023-04-21T13:37:30.940Z,32.99
2023-04-21T13:40:03.509Z,31.29
2023-04-21T13:42:37.622Z,31.28
2023-04-21T13:45:11.712Z,31.81
2023-04-21T13:47:44.726Z,34.01
2023-04-21T13:50:17.977Z,32.73
2023-04-21T13:52:52.440Z,33.08
2023-04-21T13:55:24.674Z,35.19
2023-04-21T13:57:57.445Z,32.60
2023-04-21T14:00:30.040Z,32.75
2023-04-21T14:03:04.546Z,32.28
2023-04-21T14:05:38.074Z,31.04
2023-04-21T14:08:10.442Z,34.35
2023-04-21T14:10:43.643Z,34.15
2023-04-21T14:13:33.126Z,33.03
2023-04-21T14:16:07.320Z,33.25
2023-04-21T14:18:44.508Z,31.17
2023-04-21T14:21:16.828Z,32.49
2023-04-21T14:23:49.135Z,33.90
2023-04-21T14:26:21.456Z,32.80
2023-04-21T14:28:53.806Z,31.48
2023-04-21T14:31:26.450Z,33.45
2023-04-21T14:33:59.521Z,33.36
2023-04-21T14:36:32.154Z,33.22
2023-04-21T14:39:04.837Z,33.99
2023-04-21T14:41:37.034Z,33.41
2023-04-21T14:44:09.450Z,33.68
2023-04-21T14:46:43.388Z,32.31
2023-04-21T14:49:17.701Z,33.03
2023-04-21T14:51:51.957Z,33.60
2023-04-21T14:54:24.153Z,34.92
2023-04-21T14:57:10.419Z,34.39
2023-04-21T14:59:50.058Z,33.03
2023-04-21T15:02:23.433Z,32.07
2023-04-21T15:04:57.431Z,33.18
2023-04-21T15:07:29.941Z,33.05
2023-04-21T15:10:02.433Z,34.28
2023-04-21T15:12:36.600Z,35.20
2023-04-21T15:15:11.229Z,38.45
2023-04-21T15:17:43.385Z,35.94
2023-04-21T15:20:15.832Z,34.00
2023-04-21T15:22:48.120Z,34.92
2023-04-21T15:25:21.149Z,35.26
2023-04-21T15:27:53.279Z,36.04
2023-04-21T15:30:25.616Z,36.21
2023-04-21T15:32:57.936Z,37.23
2023-04-21T15:35:30.580Z,37.44
2023-04-21T15:38:03.400Z,34.76
2023-04-21T15:40:39.295Z,34.95
2023-04-21T15:43:18.778Z,35.89
2023-04-21T15:45:51.267Z,35.98
2023-04-21T15:48:23.888Z,36.43
2023-04-21T15:50:57.333Z,35.77
2023-04-21T15:53:29.600Z,36.62
2023-04-21T15:56:02.236Z,36.26
2023-04-21T15:58:34.614Z,36.37
2023-04-21T16:01:07.512Z,36.14
2023-04-21T16:03:40.824Z,35.75
2023-04-21T16:06:13.359Z,36.67
2023-04-21T16:08:46.254Z,36.48
2023-04-21T16:11:18.694Z,36.83
2023-04-21T16:13:52.073Z,37.44
2023-04-21T16:16:24.636Z,37.09
2023-04-21T16:18:57.185Z,37.48
2023-04-21T16:21:30.001Z,37.40
2023-04-21T16:24:02.943Z,36.74
2023-04-21T16:26:36.939Z,37.00
2023-04-21T16:29:09.470Z,37.07
2023-04-21T16:31:41.824Z,37.72
2023-04-21T16:34:16.234Z,37.68
2023-04-21T16:36:48.915Z,37.23
2023-04-21T16:39:22.004Z,37.18
2023-04-21T16:41:54.827Z,37.16
2023-04-21T16:44:27.058Z,36.73
2023-04-21T16:46:59.598Z,36.08
2023-04-21T16:49:31.944Z,37.22
2023-04-21T16:52:05.208Z,37.79
2023-04-21T16:54:37.786Z,37.72
2023-04-21T16:57:10.195Z,37.31
2023-04-21T16:59:42.811Z,36.35
2023-04-21T17:02:15.237Z,36.90
2023-04-21T17:04:47.530Z,37.25
2023-04-21T17:07:20.574Z,37.67
2023-04-21T17:09:53.699Z,36.51
2023-04-21T17:12:26.709Z,36.68
2023-04-21T17:14:58.776Z,37.18
2023-04-21T17:17:41.555Z,36.67
2023-04-21T17:20:15.501Z,36.64
2023-04-21T17:22:47.947Z,37.03
2023-04-21T17:25:20.331Z,37.23
2023-04-21T17:27:52.598Z,37.96
2023-04-21T17:30:25.066Z,37.45
2023-04-21T17:33:08.404Z,38.00
2023-04-21T17:36:02.014Z,38.54
2023-04-21T17:38:35.777Z,38.20
2023-04-21T17:41:08.627Z,38.53
2023-04-21T17:43:41.478Z,38.25
2023-04-21T17:46:13.658Z,39.45
2023-04-21T17:48:46.114Z,40.66
2023-04-21T17:51:19.361Z,41.69
2023-04-21T17:53:51.620Z,42.72
2023-04-21T17:56:24.058Z,43.30
2023-04-21T17:58:56.935Z,43.34
2023-04-21T18:01:30.239Z,43.97
2023-04-21T18:04:02.735Z,43.42
2023-04-21T18:06:35.161Z,43.47
2023-04-21T18:09:09.050Z,43.81
2023-04-21T18:11:41.818Z,44.03
2023-04-21T18:14:16.116Z,44.72
2023-04-21T18:16:48.286Z,44.43
2023-04-21T18:19:21.109Z,44.56
2023-04-21T18:21:53.731Z,44.07
2023-04-21T18:24:26.584Z,45.23
2023-04-21T18:26:59.054Z,45.33
2023-04-21T18:29:31.705Z,45.10
2023-04-21T18:32:04.108Z,44.42
2023-04-21T18:34:38.148Z,44.46
2023-04-21T18:37:10.945Z,43.77
2023-04-21T18:39:43.692Z,44.69
2023-04-21T18:42:16.249Z,45.41
2023-04-21T18:44:49.240Z,44.92
2023-04-21T18:47:21.775Z,44.66
2023-04-21T18:49:53.983Z,45.33
2023-04-21T18:52:26.262Z,44.25
2023-04-21T18:54:58.782Z,42.95
2023-04-21T18:57:31.256Z,43.15
2023-04-21T19:00:04.267Z,43.36
2023-04-21T19:02:37.287Z,42.70
2023-04-21T19:05:10.634Z,43.34
2023-04-21T19:07:43.157Z,43.44
2023-04-21T19:10:15.710Z,45.01
2023-04-21T19:12:48.095Z,45.74
2023-04-21T19:15:21.224Z,45.28
2023-04-21T19:17:54.641Z,45.45
2023-04-21T19:20:26.941Z,45.29
2023-04-21T19:22:59.414Z,44.41
2023-04-21T19:25:31.947Z,45.41
2023-04-21T19:28:04.325Z,46.21
2023-04-21T19:30:36.593Z,46.05
2023-04-21T19:33:09.525Z,45.40
2023-04-21T19:35:42.675Z,45.80
2023-04-21T19:38:15.233Z,46.10
2023-04-21T19:40:48.783Z,46.39
2023-04-21T19:43:21.753Z,46.60
2023-04-21T19:45:54.245Z,46.50
2023-04-21T19:48:26.809Z,46.29
2023-04-21T19:50:59.323Z,46.30
2023-04-21T19:53:31.531Z,46.43
2023-04-21T19:56:04.035Z,47.08
2023-04-21T19:58:40.638Z,47.60
2023-04-21T20:01:13.371Z,47.41
2023-04-21T20:03:47.811Z,47.14
2023-04-21T20:06:20.863Z,47.85
2023-04-21T20:08:53.141Z,47.78
2023-04-21T20:11:28.788Z,47.95
2023-04-21T20:14:01.920Z,48.80
2023-04-21T20:16:34.619Z,49.34
2023-04-21T20:19:07.019Z,50.11
2023-04-21T20:21:39.482Z,50.05
2023-04-21T20:24:12.315Z,49.81
2023-04-21T20:26:44.712Z,49.84
2023-04-21T20:29:17.363Z,50.34
2023-04-21T20:31:50.002Z,50.77
2023-04-21T20:34:22.425Z,50.39
2023-04-21T20:36:55.680Z,50.50
2023-04-21T20:39:28.416Z,50.58
2023-04-21T20:42:09.302Z,50.04
2023-04-21T20:44:46.247Z,49.35
2023-04-21T20:47:18.395Z,49.65
2023-04-21T20:49:51.122Z,50.15
2023-04-21T20:52:23.972Z,50.13
2023-04-21T20:54:56.294Z,50.85
2023-04-21T20:57:28.726Z,51.27
2023-04-21T21:00:00.919Z,51.75
2023-04-21T21:02:33.469Z,52.00
2023-04-21T21:05:06.967Z,51.72
2023-04-21T21:07:39.509Z,51.97
2023-04-21T21:10:12.035Z,51.85
2023-04-21T21:12:44.380Z,51.79
2023-04-21T21:15:19.582Z,51.44
2023-04-21T21:17:52.725Z,51.68
2023-04-21T21:20:25.330Z,51.38
2023-04-21T21:22:57.794Z,52.12
2023-04-21T21:25:30.183Z,51.74
2023-04-21T21:28:02.384Z,52.03
2023-04-21T21:30:35.062Z,51.92
2023-04-21T21:33:07.427Z,52.05
2023-04-21T21:35:39.895Z,51.88
2023-04-21T21:38:11.963Z,51.59
2023-04-21T21:40:44.269Z,51.67
2023-04-21T21:43:17.489Z,52.03
2023-04-21T21:45:50.401Z,52.07
2023-04-21T21:48:23.062Z,52.17
2023-04-21T21:50:55.793Z,52.35
2023-04-21T21:53:28.115Z,52.60
2023-04-21T21:56:00.304Z,52.70
2023-04-21T21:58:32.729Z,52.98
2023-04-21T22:01:05.320Z,52.95
2023-04-21T22:03:37.790Z,53.13
2023-04-21T22:06:10.929Z,52.73
2023-04-21T22:08:43.032Z,53.15
2023-04-21T22:11:15.420Z,53.17
2023-04-21T22:13:48.121Z,53.06
2023-04-21T22:16:20.668Z,53.27
2023-04-21T22:18:53.256Z,53.12
2023-04-21T22:21:28.571Z,53.46
2023-04-21T22:24:03.723Z,53.17
2023-04-21T22:26:36.200Z,53.46
2023-04-21T22:29:08.483Z,53.11
2023-04-21T22:31:40.769Z,53.37
2023-04-21T22:34:15.174Z,53.31
2023-04-21T22:36:47.402Z,53.63
2023-04-21T22:39:20.152Z,53.90
2023-04-21T22:41:53.213Z,54.11
2023-04-21T22:44:25.853Z,54.10
2023-04-21T22:46:58.478Z,54.41
2023-04-21T22:49:30.666Z,54.23
2023-04-21T22:52:02.824Z,54.07
2023-04-21T22:54:35.045Z,53.92
2023-04-21T22:57:07.385Z,54.15
2023-04-21T22:59:40.080Z,54.17
2023-04-21T23:02:12.778Z,54.08
2023-04-21T23:04:45.156Z,54.12
2023-04-21T23:07:17.446Z,54.20
2023-04-21T23:09:50.172Z,54.36
2023-04-21T23:12:22.371Z,54.32
2023-04-21T23:14:54.858Z,54.12
2023-04-21T23:17:27.860Z,54.28
2023-04-21T23:20:02.432Z,54.47
2023-04-21T23:22:34.726Z,54.39
2023-04-21T23:25:08.096Z,54.23
2023-04-21T23:27:40.710Z,54.38
2023-04-21T23:30:15.268Z,54.68
2023-04-21T23:32:47.718Z,54.64
2023-04-21T23:35:21.631Z,54.48
2023-04-21T23:37:53.906Z,54.51
2023-04-21T23:40:26.448Z,54.47
2023-04-21T23:42:58.856Z,54.44
2023-04-21T23:45:31.257Z,54.46
2023-04-21T23:48:03.758Z,54.64
2023-04-21T23:50:36.449Z,54.72
2023-04-21T23:53:08.673Z,54.81
2023-04-21T23:55:41.108Z,55.02
2023-04-21T23:58:14.871Z,54.97
